Time;durP1;ratioP1;P1;durP2;ratioP2;P2;SDS_P1;SDS_P2;PMS_P1;PMS_P2;Temp;Humidity;BMP_temperature;BMP_pressure;BME280_temperature;BME280_humidity;BME280_pressure;Samples;Min_cycle;Max_cycle;Signal;HPM_P1;HPM_P2
2023/02/16 00:01:51;;;;;;;35.80;18.27;;;3.40;1.00;;;;;;5051730;28;20505;-59
2023/02/16 00:04:26;;;;;;;33.43;18.10;;;3.40;1.00;;;;;;5038370;28;20426;-60
2023/02/16 00:06:52;;;;;;;34.17;17.80;;;3.50;1.00;;;;;;5055120;28;20512;-59
2023/02/16 00:09:19;;;;;;;34.53;18.17;;;3.40;1.00;;;;;;5048069;28;20456;-59
2023/02/16 00:14:31;;;;;;;27.50;16.37;;;5.30;1.00;;;;;;5035897;28;20504;-58
2023/02/16 00:16:58;;;;;;;34.73;16.93;;;3.40;1.00;;;;;;5051353;28;20432;-58
2023/02/16 00:19:26;;;;;;;33.87;17.57;;;3.40;1.00;;;;;;5055529;28;20417;-58
2023/02/16 00:21:54;;;;;;;31.00;17.73;;;3.40;1.00;;;;;;5053791;28;20538;-59
2023/02/16 00:24:21;;;;;;;32.57;17.60;;;3.40;1.00;;;;;;5055618;28;20430;-59
2023/02/16 00:26:47;;;;;;;36.87;18.70;;;3.30;1.00;;;;;;5055282;28;20428;-59
2023/02/16 00:29:26;;;;;;;31.77;16.53;;;3.30;1.00;;;;;;5055376;28;20531;-59
2023/02/16 00:31:52;;;;;;;30.10;16.60;;;3.30;1.00;;;;;;5055052;28;20456;-59
2023/02/16 00:34:35;;;;;;;32.63;16.90;;;3.20;1.00;;;;;;5054995;28;20428;-58
2023/02/16 00:37:04;;;;;;;30.97;17.60;;;3.40;1.00;;;;;;5055102;28;20778;-59
2023/02/16 00:39:30;;;;;;;31.30;17.37;;;3.40;1.00;;;;;;5038049;28;20448;-58
2023/02/16 00:42:04;;;;;;;35.10;18.87;;;3.30;1.00;;;;;;5052308;28;20468;-59
2023/02/16 00:44:41;;;;;;;32.60;17.53;;;3.30;1.00;;;;;;5054694;28;20435;-61
2023/02/16 00:47:19;;;;;;;33.50;17.27;;;3.30;1.00;;;;;;5054803;28;20906;-59
2023/02/16 00:49:46;;;;;;;32.37;17.90;;;3.30;1.00;;;;;;5054925;28;20933;-59
2023/02/16 00:52:35;;;;;;;28.23;15.87;;;3.30;1.00;;;;;;5055244;28;20456;-58
2023/02/16 00:55:07;;;;;;;31.13;16.40;;;3.20;1.00;;;;;;5049964;28;20472;-59
2023/02/16 00:57:37;;;;;;;30.20;17.17;;;3.20;1.00;;;;;;5062732;28;20449;-58
2023/02/16 01:00:34;;;;;;;37.30;16.23;;;3.30;1.00;;;;;;5056647;28;20973;-59
2023/02/16 01:03:03;;;;;;;30.67;15.77;;;3.20;1.00;;;;;;5051978;28;20437;-60
2023/02/16 01:05:29;;;;;;;29.10;16.47;;;3.20;1.00;;;;;;5065587;28;20465;-60
2023/02/16 01:13:26;;;;;;;31.77;15.83;;;3.10;1.00;;;;;;5049660;28;20446;-60
2023/02/16 01:15:52;;;;;;;28.50;15.63;;;3.10;1.00;;;;;;5055497;28;20788;-60
2023/02/16 01:18:18;;;;;;;35.00;17.87;;;3.10;1.00;;;;;;5053673;28;20439;-59
2023/02/16 01:20:44;;;;;;;28.33;15.47;;;3.10;1.00;;;;;;5050522;28;20177;-59
2023/02/16 01:23:10;;;;;;;30.33;16.27;;;3.20;1.00;;;;;;5053591;28;20451;-59
2023/02/16 01:25:37;;;;;;;29.20;16.77;;;3.20;1.00;;;;;;5033284;28;20430;-58
2023/02/16 01:28:12;;;;;;;29.13;17.33;;;3.20;1.00;;;;;;5049921;28;20190;-58
2023/02/16 01:30:38;;;;;;;36.17;18.90;;;3.20;1.00;;;;;;5039557;28;20972;-59
2023/02/16 01:33:04;;;;;;;32.57;16.07;;;3.10;1.00;;;;;;5042683;28;20472;-58
2023/02/16 01:35:32;;;;;;;30.77;17.10;;;3.20;1.00;;;;;;5055932;28;20198;-58
2023/02/16 01:37:58;;;;;;;30.43;16.67;;;3.10;1.00;;;;;;5054006;28;20211;-58
2023/02/16 01:40:33;;;;;;;28.47;14.50;;;3.10;1.00;;;;;;5060104;28;20802;-61
2023/02/16 01:43:21;;;;;;;31.00;16.20;;;3.10;1.00;;;;;;5069434;28;20922;-59
2023/02/16 01:45:55;;;;;;;30.10;16.13;;;3.10;1.00;;;;;;5058440;28;20445;-59
2023/02/16 01:48:26;;;;;;;33.13;17.30;;;3.10;1.00;;;;;;5053682;28;20528;-58
2023/02/16 01:51:27;;;;;;;27.93;16.00;;;3.10;1.00;;;;;;5037313;28;20438;-59
2023/02/16 01:54:00;;;;;;;30.93;16.60;;;3.10;1.00;;;;;;5042376;28;20472;-59
2023/02/16 01:56:44;;;;;;;34.53;16.50;;;3.00;1.00;;;;;;5041505;28;20444;-58
2023/02/16 01:59:25;;;;;;;32.90;17.40;;;3.10;1.00;;;;;;5046446;28;20921;-59
2023/02/16 02:02:02;;;;;;;32.20;16.03;;;3.10;1.00;;;;;;5058679;28;20500;-60
2023/02/16 02:07:30;;;;;;;28.93;15.53;;;3.00;1.00;;;;;;5035458;28;20436;-59
2023/02/16 02:10:21;;;;;;;31.47;17.20;;;3.00;1.00;;;;;;5056875;28;20922;-59
2023/02/16 02:13:05;;;;;;;27.50;15.63;;;2.90;1.00;;;;;;5044779;28;20284;-58
2023/02/16 02:15:33;;;;;;;34.17;16.63;;;2.90;1.00;;;;;;5053702;28;20444;-59
2023/02/16 02:17:59;;;;;;;32.00;17.33;;;2.90;1.00;;;;;;5058575;28;20432;-60
2023/02/16 02:23:58;;;;;;;30.63;17.20;;;2.90;1.00;;;;;;5051122;28;20985;-59
2023/02/16 02:26:58;;;;;;;29.43;15.93;;;2.90;1.00;;;;;;5052874;28;20451;-59
2023/02/16 02:29:39;;;;;;;29.23;15.67;;;2.80;1.00;;;;;;5052180;28;20826;-59
2023/02/16 02:32:16;;;;;;;26.00;15.57;;;2.90;1.00;;;;;;5054948;28;20517;-59
2023/02/16 02:34:47;;;;;;;28.63;15.47;;;2.80;1.00;;;;;;5059924;28;20447;-59
2023/02/16 02:37:45;;;;;;;30.43;15.67;;;2.90;1.00;;;;;;5052801;28;20496;-57
2023/02/16 02:40:17;;;;;;;23.97;14.10;;;2.90;1.00;;;;;;5045354;28;20795;-58
2023/02/16 02:43:08;;;;;;;27.30;14.83;;;2.90;1.00;;;;;;5052655;28;20467;-60
2023/02/16 02:45:51;;;;;;;26.00;14.80;;;2.90;1.00;;;;;;5061656;28;20526;-59
2023/02/16 02:48:16;;;;;;;25.27;14.63;;;2.90;1.00;;;;;;5052107;28;20434;-60
2023/02/16 03:02:58;;;;;;;22.27;13.77;;;2.90;1.00;;;;;;5048840;28;20440;-60
2023/02/16 03:05:27;;;;;;;23.40;13.03;;;2.80;1.00;;;;;;5062234;28;20437;-59
2023/02/16 03:08:05;;;;;;;29.37;14.00;;;2.90;1.00;;;;;;5053911;28;20451;-59
2023/02/16 03:13:22;;;;;;;21.03;12.87;;;2.90;1.00;;;;;;5040372;28;20474;-59
2023/02/16 03:15:50;;;;;;;28.90;14.13;;;2.80;1.00;;;;;;5050820;28;20471;-58
2023/02/16 03:29:21;;;;;;;25.17;13.67;;;2.70;1.00;;;;;;5041306;28;20479;-60
2023/02/16 03:31:48;;;;;;;26.70;16.20;;;2.70;1.00;;;;;;5053340;28;20537;-58
2023/02/16 03:34:15;;;;;;;25.57;12.80;;;2.70;1.00;;;;;;5056485;28;21000;-57
2023/02/16 03:36:42;;;;;;;25.57;14.17;;;2.80;1.00;;;;;;5056315;28;20864;-57
2023/02/16 03:39:09;;;;;;;29.30;15.20;;;2.70;1.00;;;;;;5056258;28;20481;-58
2023/02/16 03:41:46;;;;;;;29.07;15.73;;;2.80;1.00;;;;;;5056860;28;20453;-59
2023/02/16 03:44:12;;;;;;;24.20;14.30;;;2.80;1.00;;;;;;5044842;28;20507;-59
2023/02/16 03:46:38;;;;;;;29.23;14.90;;;2.80;1.00;;;;;;5041798;28;20434;-59
2023/02/16 03:49:03;;;;;;;32.10;16.23;;;2.80;1.00;;;;;;5070858;28;20209;-58
2023/02/16 03:51:29;;;;;;;21.03;12.70;;;2.70;1.00;;;;;;5056048;28;20540;-59
2023/02/16 03:53:54;;;;;;;29.40;15.20;;;2.70;1.00;;;;;;5055920;28;20269;-58
2023/02/16 03:56:20;;;;;;;25.80;13.97;;;2.70;1.00;;;;;;5055838;28;20190;-58
2023/02/16 03:58:46;;;;;;;24.40;14.33;;;2.60;1.00;;;;;;5055801;28;20195;-59
2023/02/16 04:01:11;;;;;;;30.00;15.10;;;2.60;1.00;;;;;;5055991;28;20186;-59
2023/02/16 04:03:37;;;;;;;23.10;13.83;;;2.70;1.00;;;;;;5055535;28;20194;-59
2023/02/16 04:06:03;;;;;;;24.73;14.07;;;2.70;1.00;;;;;;5046008;28;20188;-58
2023/02/16 04:08:28;;;;;;;25.83;15.13;;;2.60;1.00;;;;;;5035981;28;20269;-59
2023/02/16 04:10:56;;;;;;;22.97;13.33;;;2.70;1.00;;;;;;5055054;28;21019;-59
2023/02/16 04:13:22;;;;;;;28.63;14.33;;;2.70;1.00;;;;;;5060798;28;20728;-60
2023/02/16 04:15:48;;;;;;;28.80;15.10;;;2.70;1.00;;;;;;5055782;28;20945;-58
2023/02/16 04:18:14;;;;;;;25.37;13.70;;;2.70;1.00;;;;;;5050161;28;20440;-59
2023/02/16 04:20:40;;;;;;;26.30;13.23;;;2.70;1.00;;;;;;5055553;28;20232;-58
2023/02/16 04:23:07;;;;;;;26.50;14.47;;;2.70;1.00;;;;;;5055125;28;20502;-59
2023/02/16 04:25:33;;;;;;;25.53;14.90;;;2.80;1.00;;;;;;5055289;28;20992;-58
2023/02/16 04:27:58;;;;;;;26.77;14.40;;;2.80;1.00;;;;;;5054652;28;20444;-59
2023/02/16 04:30:27;;;;;;;31.93;15.90;;;2.70;1.00;;;;;;5055282;28;20444;-59
2023/02/16 04:32:53;;;;;;;28.40;15.40;;;2.60;1.00;;;;;;5055277;28;20209;-58
2023/02/16 04:35:19;;;;;;;34.70;16.13;;;2.60;1.00;;;;;;5055112;28;20504;-59
2023/02/16 04:37:45;;;;;;;26.70;13.80;;;2.80;1.00;;;;;;5055101;28;20451;-58
2023/02/16 04:40:12;;;;;;;29.83;16.23;;;2.70;1.00;;;;;;5055152;28;20436;-59
2023/02/16 04:42:42;;;;;;;29.77;16.40;;;2.60;1.00;;;;;;5055118;28;20436;-57
2023/02/16 04:45:09;;;;;;;28.87;14.60;;;2.50;1.00;;;;;;5052983;28;20432;-59
2023/02/16 04:47:35;;;;;;;26.93;15.17;;;2.50;1.00;;;;;;5044854;28;20450;-58
2023/02/16 04:50:01;;;;;;;29.23;15.90;;;2.50;1.00;;;;;;5075327;28;20436;-59
2023/02/16 04:52:26;;;;;;;30.33;15.83;;;2.50;1.00;;;;;;5074873;28;20467;-58
2023/02/16 04:54:52;;;;;;;25.67;14.80;;;2.50;1.00;;;;;;5074662;28;20234;-59
2023/02/16 04:57:20;;;;;;;30.70;14.63;;;2.50;1.00;;;;;;5074663;28;20631;-58
2023/02/16 04:59:45;;;;;;;27.57;15.47;;;2.50;1.00;;;;;;5074592;28;20186;-59
2023/02/16 05:02:11;;;;;;;26.83;14.73;;;2.50;1.00;;;;;;5066263;28;20447;-58
2023/02/16 05:04:37;;;;;;;30.20;15.00;;;2.60;1.00;;;;;;5054587;28;20190;-60
2023/02/16 05:07:02;;;;;;;26.60;15.43;;;2.50;1.00;;;;;;5054790;28;20658;-58
2023/02/16 05:09:28;;;;;;;28.17;15.67;;;2.50;1.00;;;;;;5042037;28;20671;-58
2023/02/16 05:14:40;;;;;;;27.27;15.33;;;2.60;1.00;;;;;;5043624;28;20177;-57
2023/02/16 05:17:07;;;;;;;32.67;16.37;;;2.50;1.00;;;;;;5065034;28;20436;-56
2023/02/16 05:19:32;;;;;;;29.53;15.23;;;2.50;1.00;;;;;;5056160;28;20444;-59
2023/02/16 05:21:58;;;;;;;27.80;16.23;;;2.50;1.00;;;;;;5046971;28;20444;-57
2023/02/16 05:24:24;;;;;;;24.93;15.37;;;2.50;1.00;;;;;;5070770;28;20578;-57
2023/02/16 05:26:49;;;;;;;30.63;15.53;;;2.60;1.00;;;;;;5056526;28;20192;-56
2023/02/16 05:29:15;;;;;;;26.97;15.13;;;2.50;1.00;;;;;;5066642;28;20552;-56
2023/02/16 05:31:40;;;;;;;25.83;14.50;;;2.70;1.00;;;;;;5060711;28;20193;-56
2023/02/16 05:34:06;;;;;;;28.33;16.47;;;2.70;1.00;;;;;;5058093;28;20233;-58
2023/02/16 05:36:31;;;;;;;27.03;15.80;;;2.60;1.00;;;;;;5073948;28;20265;-60
2023/02/16 05:38:57;;;;;;;30.33;16.33;;;2.70;1.00;;;;;;5074109;28;20181;-57
2023/02/16 05:41:23;;;;;;;28.10;15.87;;;2.60;1.00;;;;;;5053924;28;20671;-56
2023/02/16 05:43:54;;;;;;;28.80;14.00;;;2.70;1.00;;;;;;5053932;28;20181;-56
2023/02/16 05:46:22;;;;;;;30.47;16.20;;;2.70;1.00;;;;;;5053530;28;20212;-57
2023/02/16 05:48:47;;;;;;;32.03;17.73;;;2.70;1.00;;;;;;5053804;28;21003;-56
2023/02/16 05:51:13;;;;;;;31.13;16.10;;;2.70;1.00;;;;;;5053461;28;20498;-58
2023/02/16 05:53:39;;;;;;;29.33;16.73;;;2.60;1.00;;;;;;5038241;28;20257;-57
2023/02/16 05:56:05;;;;;;;31.90;16.87;;;2.60;1.00;;;;;;5067025;28;20669;-58
2023/02/16 05:58:31;;;;;;;28.60;15.50;;;2.50;1.00;;;;;;5055570;28;20450;-58
2023/02/16 06:00:57;;;;;;;31.77;16.40;;;2.50;1.00;;;;;;5053315;28;20755;-57
2023/02/16 06:03:23;;;;;;;27.57;16.13;;;2.50;1.00;;;;;;5038664;28;20195;-57
2023/02/16 06:05:57;;;;;;;31.90;15.63;;;2.60;1.00;;;;;;5040349;28;20540;-58
2023/02/16 06:08:23;;;;;;;29.30;15.53;;;2.50;1.00;;;;;;5068901;28;20498;-56
2023/02/16 06:10:50;;;;;;;31.37;16.40;;;2.50;1.00;;;;;;5053867;28;20942;-56
2023/02/16 06:13:17;;;;;;;26.57;15.23;;;2.40;1.00;;;;;;5052712;28;20959;-59
2023/02/16 06:15:43;;;;;;;33.80;17.43;;;2.50;1.00;;;;;;5052917;28;20428;-58
2023/02/16 06:18:10;;;;;;;32.37;14.90;;;2.50;1.00;;;;;;5052999;28;21071;-56
2023/02/16 06:20:37;;;;;;;35.87;15.53;;;2.60;1.00;;;;;;5052835;28;20509;-57
2023/02/16 06:23:02;;;;;;;30.73;14.93;;;2.50;1.00;;;;;;5052940;28;21009;-57
2023/02/16 06:25:28;;;;;;;30.13;16.27;;;2.60;1.00;;;;;;5053080;28;20517;-57
2023/02/16 06:27:55;;;;;;;31.07;15.90;;;2.60;1.00;;;;;;5052845;28;20216;-57
2023/02/16 06:30:22;;;;;;;31.93;15.33;;;2.50;1.00;;;;;;5053247;28;20182;-58
2023/02/16 06:32:48;;;;;;;33.90;16.77;;;2.50;1.00;;;;;;5052908;28;20496;-57
2023/02/16 06:35:13;;;;;;;26.30;14.33;;;2.60;1.00;;;;;;5052693;28;20814;-56
2023/02/16 06:37:39;;;;;;;37.40;16.20;;;2.60;1.00;;;;;;5048547;28;20195;-57
2023/02/16 06:40:06;;;;;;;31.43;17.67;;;2.60;1.00;;;;;;5068425;28;20182;-58
2023/02/16 06:42:32;;;;;;;29.00;16.23;;;2.60;1.00;;;;;;5071433;28;20196;-58
2023/02/16 06:44:57;;;;;;;35.93;17.13;;;2.60;1.00;;;;;;5070548;28;20443;-56
2023/02/16 06:47:26;;;;;;;29.27;14.70;;;2.50;1.00;;;;;;5068875;28;20824;-59
2023/02/16 06:49:51;;;;;;;33.07;15.13;;;2.50;1.00;;;;;;5070719;28;20192;-56
2023/02/16 06:52:17;;;;;;;30.73;15.97;;;2.60;1.00;;;;;;5052003;28;20459;-58
2023/02/16 06:54:43;;;;;;;29.03;14.60;;;2.70;1.00;;;;;;5070691;28;20221;-56
2023/02/16 06:57:08;;;;;;;38.97;18.03;;;2.70;1.00;;;;;;5060495;28;20229;-57
2023/02/16 06:59:34;;;;;;;31.27;16.37;;;2.70;1.00;;;;;;5052369;28;20544;-57
2023/02/16 07:01:59;;;;;;;27.80;15.90;;;2.80;1.00;;;;;;5052069;28;20284;-56
2023/02/16 07:04:25;;;;;;;32.97;16.67;;;2.70;1.00;;;;;;5052407;28;20189;-57
2023/02/16 07:06:52;;;;;;;30.73;16.20;;;2.80;1.00;;;;;;5052434;28;20209;-57
2023/02/16 07:09:17;;;;;;;30.80;18.10;;;2.70;1.00;;;;;;5052413;28;20554;-59
2023/02/16 07:11:43;;;;;;;30.23;16.67;;;2.80;1.00;;;;;;5052540;28;20476;-57
2023/02/16 07:14:09;;;;;;;33.20;16.93;;;2.70;1.00;;;;;;5053121;28;20187;-56
2023/02/16 07:16:34;;;;;;;33.27;17.30;;;2.80;1.00;;;;;;5072271;28;20216;-57
2023/02/16 07:19:00;;;;;;;32.07;16.97;;;2.90;1.00;;;;;;5072537;28;20185;-58
2023/02/16 07:21:26;;;;;;;33.33;18.43;;;2.90;1.00;;;;;;5072264;28;20523;-57
2023/02/16 07:23:51;;;;;;;36.97;18.47;;;2.90;1.00;;;;;;5061559;28;20231;-58
2023/02/16 07:26:17;;;;;;;33.30;17.70;;;2.90;1.00;;;;;;5051947;28;20193;-57
2023/02/16 07:28:42;;;;;;;31.80;16.13;;;2.90;1.00;;;;;;5052196;28;20182;-57
2023/02/16 07:31:10;;;;;;;38.03;17.17;;;2.90;1.00;;;;;;5052089;28;20207;-58
2023/02/16 07:33:36;;;;;;;31.87;16.13;;;2.90;1.00;;;;;;5052069;28;20209;-57
2023/02/16 07:36:01;;;;;;;28.23;16.30;;;2.90;1.00;;;;;;5052261;28;20535;-57
2023/02/16 07:38:29;;;;;;;36.50;18.40;;;3.00;1.00;;;;;;5064918;28;20212;-57
2023/02/16 07:40:55;;;;;;;32.97;16.07;;;3.10;1.00;;;;;;5069134;28;20446;-57
2023/02/16 07:43:21;;;;;;;32.93;16.37;;;3.10;1.00;;;;;;5069067;28;20510;-58
2023/02/16 07:45:48;;;;;;;34.03;18.40;;;3.10;1.00;;;;;;5052121;28;20504;-58
2023/02/16 07:48:13;;;;;;;33.30;16.50;;;3.10;1.00;;;;;;5051887;28;20206;-57
2023/02/16 07:50:39;;;;;;;29.23;16.50;;;3.10;1.00;;;;;;5067183;28;20608;-58
2023/02/16 07:53:04;;;;;;;32.23;17.30;;;3.20;1.00;;;;;;5071888;28;20201;-57
2023/02/16 07:55:30;;;;;;;27.77;15.77;;;3.20;1.00;;;;;;5071668;28;20233;-57
2023/02/16 07:57:56;;;;;;;32.50;16.37;;;3.30;1.00;;;;;;5057689;28;20190;-56
2023/02/16 08:00:22;;;;;;;35.40;16.90;;;3.40;1.00;;;;;;5071589;28;20182;-60
2023/02/16 08:02:48;;;;;;;36.37;16.50;;;3.50;1.00;;;;;;5071637;28;20186;-58
2023/02/16 08:05:13;;;;;;;28.40;16.17;;;3.50;1.00;;;;;;5069701;28;20522;-56
2023/02/16 08:07:40;;;;;;;27.43;14.90;;;3.60;1.00;;;;;;5055243;28;20508;-57
2023/02/16 08:10:07;;;;;;;26.07;15.33;;;3.60;1.00;;;;;;5058077;28;20243;-56
2023/02/16 08:12:32;;;;;;;29.17;16.43;;;3.80;1.00;;;;;;5060959;28;20472;-56
2023/02/16 08:14:58;;;;;;;28.53;15.50;;;3.90;1.00;;;;;;5055106;28;20440;-58
2023/02/16 08:17:24;;;;;;;31.30;15.90;;;4.00;1.00;;;;;;5063510;28;20271;-58
2023/02/16 08:19:49;;;;;;;26.23;15.57;;;4.00;1.00;;;;;;5055033;28;20197;-58
2023/02/16 08:22:17;;;;;;;30.33;15.23;;;4.00;1.00;;;;;;5054753;28;20248;-56
2023/02/16 08:24:42;;;;;;;25.70;14.90;;;4.10;1.00;;;;;;5068952;28;20435;-57
2023/02/16 08:27:08;;;;;;;28.23;15.17;;;4.40;1.00;;;;;;5075031;28;20447;-58
2023/02/16 08:29:34;;;;;;;28.03;15.10;;;4.50;1.00;;;;;;5063251;28;20536;-57
2023/02/16 08:32:06;;;;;;;27.77;14.87;;;4.70;1.00;;;;;;5055070;28;20795;-58
2023/02/16 08:34:32;;;;;;;31.40;15.40;;;5.00;1.00;;;;;;5062348;28;20830;-57
2023/02/16 08:36:58;;;;;;;25.13;14.90;;;5.40;1.00;;;;;;5061317;28;20468;-59
2023/02/16 08:39:26;;;;;;;27.47;15.60;;;5.60;1.00;;;;;;5050235;28;20437;-59
2023/02/16 08:41:53;;;;;;;26.63;15.80;;;5.80;1.00;;;;;;5074559;28;20511;-57
2023/02/16 08:44:20;;;;;;;24.37;15.77;;;6.00;1.00;;;;;;5048009;28;20543;-57
2023/02/16 08:46:49;;;;;;;26.90;14.70;;;6.00;1.00;;;;;;5074629;28;20540;-56
2023/02/16 08:49:17;;;;;;;25.40;15.03;;;6.00;1.00;;;;;;5066026;28;20942;-57
2023/02/16 08:51:47;;;;;;;25.80;15.43;;;5.20;1.00;;;;;;5070625;28;20521;-57
2023/02/16 08:54:19;;;;;;;28.80;14.80;;;6.20;1.00;;;;;;5074261;28;20468;-57
2023/02/16 08:56:46;;;;;;;22.20;14.60;;;6.50;1.00;;;;;;5058820;28;20475;-57
2023/02/16 08:59:14;;;;;;;30.33;14.50;;;6.60;1.00;;;;;;5054222;28;20553;-56
2023/02/16 09:01:41;;;;;;;26.50;15.00;;;8.10;1.00;;;;;;5053149;28;20934;-58
2023/02/16 09:04:07;;;;;;;25.90;15.67;;;7.00;1.00;;;;;;5054257;28;21066;-58
2023/02/16 09:06:36;;;;;;;27.40;15.70;;;7.10;1.00;;;;;;5057427;28;20443;-57
2023/02/16 09:09:03;;;;;;;24.33;13.87;;;7.20;1.00;;;;;;5074413;28;20459;-57
2023/02/16 09:11:29;;;;;;;27.77;17.63;;;7.30;1.00;;;;;;5063239;28;21016;-57
2023/02/16 09:13:56;;;;;;;25.13;15.80;;;7.30;1.00;;;;;;5054310;28;20447;-57
2023/02/16 09:16:23;;;;;;;24.13;14.03;;;7.20;1.00;;;;;;5053868;28;20519;-57
2023/02/16 09:18:50;;;;;;;25.67;16.00;;;7.40;1.00;;;;;;5053940;28;20921;-57
2023/02/16 09:21:21;;;;;;;24.67;14.27;;;7.40;1.00;;;;;;5053789;28;20912;-57
2023/02/16 09:23:49;;;;;;;25.77;16.53;;;7.60;1.00;;;;;;5053521;28;20411;-58
2023/02/16 09:26:16;;;;;;;22.43;15.53;;;7.60;1.00;;;;;;5053931;28;20822;-56
2023/02/16 09:28:43;;;;;;;27.00;15.27;;;7.70;1.00;;;;;;5053639;28;20525;-58
2023/02/16 09:31:12;;;;;;;23.73;15.60;;;7.80;1.00;;;;;;5064936;28;20529;-59
2023/02/16 09:33:39;;;;;;;30.03;16.60;;;8.10;1.00;;;;;;5054750;28;20552;-56
2023/02/16 09:36:06;;;;;;;24.27;15.43;;;8.40;1.00;;;;;;5071625;28;20440;-57
2023/02/16 09:38:34;;;;;;;27.47;14.70;;;8.50;1.00;;;;;;5053816;28;20446;-57
2023/02/16 09:41:44;;;;;;;27.37;16.40;;;8.40;1.00;;;;;;5052275;28;20437;-56
2023/02/16 09:44:31;;;;;;;25.30;16.23;;;8.30;1.00;;;;;;5053110;28;20824;-56
2023/02/16 09:47:02;;;;;;;25.33;16.50;;;8.20;1.00;;;;;;5054150;28;20412;-57
2023/02/16 09:49:42;;;;;;;30.90;15.67;;;8.20;1.00;;;;;;5073298;28;20795;-56
2023/02/16 09:52:41;;;;;;;28.23;15.20;;;8.10;1.00;;;;;;5066696;28;20431;-58
2023/02/16 09:55:13;;;;;;;26.83;17.33;;;8.20;1.00;;;;;;5048830;28;20930;-56
2023/02/16 09:57:41;;;;;;;24.70;15.87;;;8.10;1.00;;;;;;5053217;28;20438;-58
2023/02/16 10:00:32;;;;;;;23.73;15.80;;;8.00;1.00;;;;;;5052947;28;20474;-57
2023/02/16 10:03:22;;;;;;;30.13;16.37;;;8.10;1.00;;;;;;5053287;28;20991;-56
2023/02/16 10:05:57;;;;;;;34.20;17.97;;;8.30;1.00;;;;;;5052958;28;20465;-58
2023/02/16 10:08:28;;;;;;;27.30;16.37;;;8.40;1.00;;;;;;5053006;28;20910;-58
2023/02/16 10:11:36;;;;;;;27.73;17.67;;;8.40;1.00;;;;;;5052871;28;20526;-57
2023/02/16 10:14:16;;;;;;;27.23;16.30;;;8.50;1.00;;;;;;5052811;28;20428;-56
2023/02/16 10:16:49;;;;;;;24.23;15.40;;;8.50;1.00;;;;;;5053052;28;20412;-57
2023/02/16 10:19:42;;;;;;;26.63;17.30;;;8.50;1.00;;;;;;5046543;28;20803;-55
2023/02/16 10:22:14;;;;;;;26.27;14.83;;;8.50;1.00;;;;;;5069837;28;20419;-57
2023/02/16 10:25:04;;;;;;;27.40;16.10;;;8.60;1.00;;;;;;5046656;28;20435;-57
2023/02/16 10:27:38;;;;;;;29.70;15.93;;;8.70;1.00;;;;;;5051181;28;20436;-57
2023/02/16 10:30:14;;;;;;;30.83;17.17;;;8.90;1.00;;;;;;5052773;28;20466;-57
2023/02/16 10:32:52;;;;;;;27.33;16.07;;;9.10;1.00;;;;;;5052807;28;20872;-58
2023/02/16 10:35:26;;;;;;;24.33;16.27;;;9.20;1.00;;;;;;5052585;28;20470;-58
2023/02/16 10:38:20;;;;;;;33.03;19.33;;;9.30;1.00;;;;;;5052601;28;20862;-57
2023/02/16 10:40:56;;;;;;;27.23;16.73;;;9.40;1.00;;;;;;5063859;28;20433;-55
2023/02/16 10:43:46;;;;;;;29.67;17.40;;;9.40;1.00;;;;;;5072564;28;20448;-57
2023/02/16 10:46:24;;;;;;;28.60;17.47;;;9.50;1.00;;;;;;5064367;28;20785;-57
2023/02/16 10:48:54;;;;;;;27.53;17.33;;;9.70;1.00;;;;;;5052375;28;20452;-57
2023/02/16 10:51:27;;;;;;;27.40;16.47;;;10.00;1.00;;;;;;5052482;28;20426;-57
2023/02/16 10:54:04;;;;;;;25.77;17.13;;;10.00;1.00;;;;;;5052188;28;20478;-57
2023/02/16 10:56:40;;;;;;;27.80;17.03;;;9.90;1.00;;;;;;5052407;28;20787;-57
2023/02/16 10:59:12;;;;;;;30.07;17.50;;;10.00;1.00;;;;;;5058647;28;20437;-58
2023/02/16 11:01:54;;;;;;;26.73;18.33;;;10.00;1.00;;;;;;5054712;28;20456;-58
2023/02/16 11:04:39;;;;;;;27.83;17.37;;;10.00;1.00;;;;;;5051239;28;20444;-57
2023/02/16 11:07:09;;;;;;;31.90;17.77;;;10.20;1.00;;;;;;5052264;28;20955;-59
2023/02/16 11:09:36;;;;;;;27.73;17.33;;;10.30;1.00;;;;;;5052155;28;20935;-58
2023/02/16 11:12:25;;;;;;;26.47;17.13;;;10.40;1.00;;;;;;5052178;28;20594;-58
2023/02/16 11:14:53;;;;;;;25.37;16.63;;;10.50;1.00;;;;;;5069426;28;20450;-58
2023/02/16 11:17:21;;;;;;;26.93;17.30;;;10.60;1.00;;;;;;5052115;28;20426;-59
2023/02/16 11:20:00;;;;;;;27.30;17.00;;;10.70;1.00;;;;;;5054069;28;20937;-58
2023/02/16 11:22:31;;;;;;;25.27;17.00;;;10.80;1.00;;;;;;5058146;28;20919;-58
2023/02/16 11:25:25;;;;;;;29.33;17.63;;;10.90;1.00;;;;;;5051122;28;20511;-59
2023/02/16 11:27:57;;;;;;;25.60;17.50;;;10.90;1.00;;;;;;5063818;28;20436;-60
2023/02/16 11:30:38;;;;;;;26.27;17.30;;;11.10;1.00;;;;;;5054235;28;20445;-59
2023/02/16 11:33:22;;;;;;;25.87;16.73;;;11.00;1.00;;;;;;5056631;28;20458;-58
2023/02/16 11:35:48;;;;;;;27.60;18.30;;;11.00;1.00;;;;;;5064474;28;20435;-59
2023/02/16 11:38:35;;;;;;;25.23;17.20;;;11.00;1.00;;;;;;5061479;28;20928;-58
2023/02/16 11:41:04;;;;;;;26.67;16.17;;;11.20;1.00;;;;;;5056601;28;20442;-60
2023/02/16 11:43:36;;;;;;;23.20;17.43;;;11.30;1.00;;;;;;5069570;28;20431;-58
2023/02/16 11:46:13;;;;;;;31.13;18.63;;;11.30;1.00;;;;;;5074890;28;20410;-58
2023/02/16 11:48:39;;;;;;;25.47;16.50;;;11.40;1.00;;;;;;5065032;28;20442;-59
2023/02/16 11:51:07;;;;;;;24.83;17.50;;;11.40;1.00;;;;;;5059987;28;20778;-59
2023/02/16 11:53:41;;;;;;;29.50;17.53;;;11.50;1.00;;;;;;5062219;28;20712;-58
2023/02/16 11:56:16;;;;;;;25.00;16.13;;;11.70;1.00;;;;;;5061029;28;20445;-59
2023/02/16 11:58:41;;;;;;;25.73;17.10;;;11.80;1.00;;;;;;5062543;28;20434;-60
2023/02/16 12:01:44;;;;;;;28.40;18.07;;;11.90;1.00;;;;;;5060697;28;20447;-59
2023/02/16 12:04:19;;;;;;;32.13;18.53;;;11.90;1.00;;;;;;5060670;28;20194;-59
2023/02/16 12:06:53;;;;;;;25.60;17.40;;;12.00;1.00;;;;;;5059973;28;20415;-57
2023/02/16 12:09:30;;;;;;;25.93;17.77;;;12.10;1.00;;;;;;5059951;28;20439;-59
2023/02/16 12:12:09;;;;;;;29.77;17.60;;;12.30;1.00;;;;;;5050344;28;20469;-58
2023/02/16 12:14:46;;;;;;;31.60;16.90;;;12.30;1.00;;;;;;5058240;28;20446;-58
2023/02/16 12:17:26;;;;;;;29.43;17.27;;;12.30;1.00;;;;;;5068548;28;20441;-57
2023/02/16 12:20:14;;;;;;;26.87;18.43;;;12.40;1.00;;;;;;5060048;28;20437;-58
2023/02/16 12:22:47;;;;;;;23.60;15.67;;;12.50;1.00;;;;;;5058051;28;20480;-60
2023/02/16 12:25:21;;;;;;;25.93;18.33;;;12.50;1.00;;;;;;5059166;28;20439;-59
2023/02/16 12:27:50;;;;;;;21.23;16.63;;;12.60;1.00;;;;;;5062568;28;20454;-60
2023/02/16 12:30:19;;;;;;;31.00;18.90;;;12.60;1.00;;;;;;5056880;28;20644;-58
2023/02/16 12:33:05;;;;;;;23.50;16.63;;;12.90;1.00;;;;;;5064548;28;20483;-60
2023/02/16 12:35:42;;;;;;;28.60;18.03;;;13.00;1.00;;;;;;5053807;28;20413;-57
2023/02/16 12:38:14;;;;;;;31.77;17.53;;;13.00;1.00;;;;;;5060753;28;20529;-58
2023/02/16 12:41:03;;;;;;;25.37;18.63;;;12.90;1.00;;;;;;5059144;28;20459;-56
2023/02/16 12:43:41;;;;;;;26.60;17.47;;;12.90;1.00;;;;;;5041058;28;20810;-58
2023/02/16 12:46:20;;;;;;;25.60;17.07;;;12.80;1.00;;;;;;5058515;28;20421;-58
2023/02/16 12:49:15;;;;;;;32.93;18.90;;;12.90;1.00;;;;;;5063857;28;20511;-59
2023/02/16 12:51:47;;;;;;;25.07;17.17;;;12.80;1.00;;;;;;5053805;28;20431;-57
2023/02/16 12:54:21;;;;;;;25.90;17.83;;;12.90;1.00;;;;;;5058344;28;20980;-58
2023/02/16 12:56:58;;;;;;;29.87;19.20;;;13.00;1.00;;;;;;5061905;28;20761;-60
2023/02/16 12:59:32;;;;;;;27.43;18.27;;;13.00;1.00;;;;;;5050188;28;20956;-59
2023/02/16 13:02:00;;;;;;;26.53;17.73;;;13.00;1.00;;;;;;5060137;28;20441;-59
2023/02/16 13:04:46;;;;;;;29.40;19.70;;;13.00;1.00;;;;;;5059730;28;20944;-58
2023/02/16 13:07:21;;;;;;;26.43;18.37;;;13.00;1.00;;;;;;5064439;28;20428;-58
2023/02/16 13:10:06;;;;;;;35.13;19.23;;;13.00;1.00;;;;;;5061484;28;20936;-59
2023/02/16 13:12:38;;;;;;;27.43;17.97;;;13.00;1.00;;;;;;5053649;28;20471;-58
2023/02/16 13:15:09;;;;;;;29.67;17.40;;;13.00;1.00;;;;;;5049944;28;20462;-59
2023/02/16 13:17:59;;;;;;;22.53;16.93;;;13.10;1.00;;;;;;5066825;28;20926;-58
2023/02/16 13:20:26;;;;;;;33.07;19.67;;;13.00;1.00;;;;;;5057578;28;20425;-57
2023/02/16 13:22:55;;;;;;;31.07;19.90;;;12.80;1.00;;;;;;5061931;28;21069;-59
2023/02/16 13:25:32;;;;;;;28.43;19.17;;;12.70;1.00;;;;;;5055703;28;20509;-61
2023/02/16 13:28:27;;;;;;;29.60;18.10;;;12.80;1.00;;;;;;5068887;28;20453;-59
2023/02/16 13:31:21;;;;;;;28.40;19.60;;;12.90;1.00;;;;;;5056656;28;20428;-59
2023/02/16 13:34:20;;;;;;;29.00;19.10;;;12.80;1.00;;;;;;5060079;28;20580;-58
2023/02/16 13:37:03;;;;;;;31.47;19.17;;;12.90;1.00;;;;;;5060932;28;20446;-59
2023/02/16 13:40:06;;;;;;;31.03;18.30;;;12.80;1.00;;;;;;5059570;28;20445;-59
2023/02/16 13:43:12;;;;;;;31.03;20.60;;;12.70;1.00;;;;;;5057405;28;20797;-57
2023/02/16 13:45:41;;;;;;;29.60;18.33;;;12.60;1.00;;;;;;5058391;28;20484;-58
2023/02/16 13:48:36;;;;;;;27.43;19.30;;;12.60;1.00;;;;;;5059740;28;20455;-59
2023/02/16 13:51:12;;;;;;;28.80;19.50;;;12.50;1.00;;;;;;5049205;28;21049;-59
2023/02/16 13:53:48;;;;;;;28.50;19.30;;;12.50;1.00;;;;;;5058080;28;20808;-59